sensor_id;sensor_type;location;lat;lon;timestamp;P1;durP1;ratioP1;P2;durP2;ratioP2
57113;SDS011;42994;51.606;9.988;2022-07-29T00:00:03;6.47;;;1.70;;
57113;SDS011;42994;51.606;9.988;2022-07-29T00:02:30;6.70;;;1.38;;
57113;SDS011;42994;51.606;9.988;2022-07-29T00:04:57;7.38;;;1.52;;
57113;SDS011;42994;51.606;9.988;2022-07-29T00:07:24;4.72;;;1.52;;
57113;SDS011;42994;51.606;9.988;2022-07-29T00:09:51;5.00;;;1.60;;
57113;SDS011;42994;51.606;9.988;2022-07-29T00:12:20;6.73;;;1.67;;
57113;SDS011;42994;51.606;9.988;2022-07-29T00:14:47;10.50;;;1.90;;
57113;SDS011;42994;51.606;9.988;2022-07-29T00:17:14;5.80;;;1.52;;
57113;SDS011;42994;51.606;9.988;2022-07-29T00:19:41;5.55;;;1.20;;
57113;SDS011;42994;51.606;9.988;2022-07-29T00:22:07;6.18;;;1.50;;
57113;SDS011;42994;51.606;9.988;2022-07-29T00:24:34;7.03;;;1.60;;
57113;SDS011;42994;51.606;9.988;2022-07-29T00:27:01;8.65;;;1.50;;
57113;SDS011;42994;51.606;9.988;2022-07-29T00:29:29;3.45;;;1.40;;
57113;SDS011;42994;51.606;9.988;2022-07-29T00:31:56;5.00;;;1.58;;
57113;SDS011;42994;51.606;9.988;2022-07-29T00:34:22;4.07;;;1.40;;
57113;SDS011;42994;51.606;9.988;2022-07-29T00:37:06;5.38;;;1.88;;
57113;SDS011;42994;51.606;9.988;2022-07-29T00:39:33;4.30;;;1.73;;
57113;SDS011;42994;51.606;9.988;2022-07-29T00:42:01;4.95;;;1.63;;
57113;SDS011;42994;51.606;9.988;2022-07-29T00:44:30;5.68;;;1.60;;
57113;SDS011;42994;51.606;9.988;2022-07-29T00:46:57;6.10;;;1.42;;
57113;SDS011;42994;51.606;9.988;2022-07-29T00:49:23;12.02;;;2.10;;
57113;SDS011;42994;51.606;9.988;2022-07-29T00:51:50;3.37;;;1.60;;
57113;SDS011;42994;51.606;9.988;2022-07-29T00:54:17;7.70;;;2.53;;
57113;SDS011;42994;51.606;9.988;2022-07-29T00:56:44;6.07;;;2.50;;
57113;SDS011;42994;51.606;9.988;2022-07-29T00:59:10;11.02;;;2.22;;
57113;SDS011;42994;51.606;9.988;2022-07-29T01:01:39;9.13;;;2.70;;
57113;SDS011;42994;51.606;9.988;2022-07-29T01:04:05;6.07;;;2.50;;
57113;SDS011;42994;51.606;9.988;2022-07-29T01:06:32;6.60;;;2.10;;
57113;SDS011;42994;51.606;9.988;2022-07-29T01:09:00;6.03;;;2.67;;
57113;SDS011;42994;51.606;9.988;2022-07-29T01:11:28;6.13;;;2.33;;
57113;SDS011;42994;51.606;9.988;2022-07-29T01:13:55;8.23;;;2.50;;
57113;SDS011;42994;51.606;9.988;2022-07-29T01:16:24;7.78;;;2.30;;
57113;SDS011;42994;51.606;9.988;2022-07-29T01:19:00;10.23;;;2.60;;
57113;SDS011;42994;51.606;9.988;2022-07-29T01:21:39;6.30;;;2.40;;
57113;SDS011;42994;51.606;9.988;2022-07-29T01:24:24;7.07;;;2.20;;
57113;SDS011;42994;51.606;9.988;2022-07-29T01:27:22;7.20;;;2.53;;
57113;SDS011;42994;51.606;9.988;2022-07-29T01:30:00;6.90;;;2.80;;
57113;SDS011;42994;51.606;9.988;2022-07-29T01:32:29;5.95;;;2.35;;
57113;SDS011;42994;51.606;9.988;2022-07-29T01:35:00;7.90;;;2.80;;
57113;SDS011;42994;51.606;9.988;2022-07-29T01:37:32;8.95;;;2.55;;
57113;SDS011;42994;51.606;9.988;2022-07-29T01:40:07;6.82;;;2.40;;
57113;SDS011;42994;51.606;9.988;2022-07-29T01:42:38;6.68;;;2.47;;
57113;SDS011;42994;51.606;9.988;2022-07-29T01:45:12;6.97;;;2.00;;
57113;SDS011;42994;51.606;9.988;2022-07-29T01:47:42;7.53;;;2.30;;
57113;SDS011;42994;51.606;9.988;2022-07-29T01:50:15;7.25;;;2.28;;
57113;SDS011;42994;51.606;9.988;2022-07-29T01:52:44;6.32;;;1.98;;
57113;SDS011;42994;51.606;9.988;2022-07-29T01:55:16;4.70;;;1.55;;
57113;SDS011;42994;51.606;9.988;2022-07-29T01:57:46;8.43;;;2.08;;
57113;SDS011;42994;51.606;9.988;2022-07-29T02:00:17;3.60;;;1.63;;
57113;SDS011;42994;51.606;9.988;2022-07-29T02:02:44;4.28;;;1.77;;
57113;SDS011;42994;51.606;9.988;2022-07-29T02:05:14;7.70;;;1.70;;
57113;SDS011;42994;51.606;9.988;2022-07-29T02:07:43;3.30;;;1.87;;
57113;SDS011;42994;51.606;9.988;2022-07-29T02:10:12;9.43;;;2.90;;
57113;SDS011;42994;51.606;9.988;2022-07-29T02:12:40;4.05;;;1.40;;
57113;SDS011;42994;51.606;9.988;2022-07-29T02:15:09;5.20;;;1.70;;
57113;SDS011;42994;51.606;9.988;2022-07-29T02:17:41;4.78;;;1.50;;
57113;SDS011;42994;51.606;9.988;2022-07-29T02:20:10;4.70;;;1.60;;
57113;SDS011;42994;51.606;9.988;2022-07-29T02:22:38;5.25;;;1.45;;
57113;SDS011;42994;51.606;9.988;2022-07-29T02:25:06;3.70;;;1.70;;
57113;SDS011;42994;51.606;9.988;2022-07-29T02:27:34;4.68;;;1.65;;
57113;SDS011;42994;51.606;9.988;2022-07-29T02:30:03;4.97;;;1.40;;
57113;SDS011;42994;51.606;9.988;2022-07-29T02:32:32;5.10;;;1.77;;
57113;SDS011;42994;51.606;9.988;2022-07-29T02:35:03;4.30;;;1.50;;
57113;SDS011;42994;51.606;9.988;2022-07-29T02:37:32;4.45;;;2.00;;
57113;SDS011;42994;51.606;9.988;2022-07-29T02:39:59;6.13;;;2.03;;
57113;SDS011;42994;51.606;9.988;2022-07-29T02:42:27;4.60;;;2.05;;
57113;SDS011;42994;51.606;9.988;2022-07-29T02:44:55;3.28;;;1.52;;
57113;SDS011;42994;51.606;9.988;2022-07-29T02:47:23;4.67;;;1.67;;
57113;SDS011;42994;51.606;9.988;2022-07-29T02:49:55;5.78;;;1.75;;
57113;SDS011;42994;51.606;9.988;2022-07-29T02:52:29;4.03;;;1.70;;
57113;SDS011;42994;51.606;9.988;2022-07-29T02:55:01;3.78;;;1.60;;
57113;SDS011;42994;51.606;9.988;2022-07-29T02:57:37;7.13;;;1.80;;
57113;SDS011;42994;51.606;9.988;2022-07-29T03:00:08;4.60;;;1.90;;
57113;SDS011;42994;51.606;9.988;2022-07-29T03:02:37;3.85;;;2.22;;
57113;SDS011;42994;51.606;9.988;2022-07-29T03:05:07;4.18;;;1.63;;
57113;SDS011;42994;51.606;9.988;2022-07-29T03:07:38;5.05;;;1.73;;
57113;SDS011;42994;51.606;9.988;2022-07-29T03:10:09;6.05;;;1.60;;
57113;SDS011;42994;51.606;9.988;2022-07-29T03:12:36;5.45;;;1.70;;
57113;SDS011;42994;51.606;9.988;2022-07-29T03:15:03;6.00;;;2.38;;
57113;SDS011;42994;51.606;9.988;2022-07-29T03:17:32;4.30;;;1.58;;
57113;SDS011;42994;51.606;9.988;2022-07-29T03:19:59;4.50;;;1.60;;
57113;SDS011;42994;51.606;9.988;2022-07-29T03:22:26;4.05;;;1.70;;
57113;SDS011;42994;51.606;9.988;2022-07-29T03:24:55;6.57;;;1.77;;
57113;SDS011;42994;51.606;9.988;2022-07-29T03:27:22;5.65;;;2.03;;
57113;SDS011;42994;51.606;9.988;2022-07-29T03:29:48;3.25;;;1.60;;
57113;SDS011;42994;51.606;9.988;2022-07-29T03:32:15;3.85;;;1.65;;
57113;SDS011;42994;51.606;9.988;2022-07-29T03:34:42;4.47;;;1.80;;
57113;SDS011;42994;51.606;9.988;2022-07-29T03:37:09;5.35;;;2.03;;
57113;SDS011;42994;51.606;9.988;2022-07-29T03:39:37;3.15;;;1.60;;
57113;SDS011;42994;51.606;9.988;2022-07-29T03:42:10;4.90;;;1.50;;
57113;SDS011;42994;51.606;9.988;2022-07-29T03:44:38;3.90;;;1.60;;
57113;SDS011;42994;51.606;9.988;2022-07-29T03:47:08;4.32;;;1.45;;
57113;SDS011;42994;51.606;9.988;2022-07-29T03:49:37;4.47;;;1.63;;
57113;SDS011;42994;51.606;9.988;2022-07-29T03:52:06;3.33;;;1.40;;
57113;SDS011;42994;51.606;9.988;2022-07-29T03:54:33;5.93;;;1.60;;
57113;SDS011;42994;51.606;9.988;2022-07-29T03:57:01;4.90;;;1.50;;
57113;SDS011;42994;51.606;9.988;2022-07-29T03:59:31;5.03;;;1.60;;
57113;SDS011;42994;51.606;9.988;2022-07-29T04:01:58;4.30;;;1.80;;
57113;SDS011;42994;51.606;9.988;2022-07-29T04:04:27;6.53;;;1.85;;
57113;SDS011;42994;51.606;9.988;2022-07-29T04:06:53;4.28;;;1.80;;
57113;SDS011;42994;51.606;9.988;2022-07-29T04:09:20;6.70;;;2.03;;
57113;SDS011;42994;51.606;9.988;2022-07-29T04:11:47;5.97;;;1.90;;
57113;SDS011;42994;51.606;9.988;2022-07-29T04:14:13;5.22;;;1.98;;
57113;SDS011;42994;51.606;9.988;2022-07-29T04:16:42;3.67;;;1.70;;
57113;SDS011;42994;51.606;9.988;2022-07-29T04:19:08;6.17;;;1.90;;
57113;SDS011;42994;51.606;9.988;2022-07-29T04:21:36;5.78;;;2.00;;
57113;SDS011;42994;51.606;9.988;2022-07-29T04:24:03;5.00;;;1.73;;
57113;SDS011;42994;51.606;9.988;2022-07-29T04:26:30;5.25;;;1.88;;
57113;SDS011;42994;51.606;9.988;2022-07-29T04:28:57;4.72;;;1.60;;
57113;SDS011;42994;51.606;9.988;2022-07-29T04:31:23;6.05;;;2.00;;
57113;SDS011;42994;51.606;9.988;2022-07-29T04:33:52;4.03;;;1.60;;
57113;SDS011;42994;51.606;9.988;2022-07-29T04:36:18;4.43;;;1.60;;
57113;SDS011;42994;51.606;9.988;2022-07-29T04:38:45;3.50;;;1.73;;
57113;SDS011;42994;51.606;9.988;2022-07-29T04:41:12;9.88;;;2.15;;
57113;SDS011;42994;51.606;9.988;2022-07-29T04:43:39;6.43;;;2.15;;
57113;SDS011;42994;51.606;9.988;2022-07-29T04:46:06;6.07;;;1.75;;
57113;SDS011;42994;51.606;9.988;2022-07-29T04:48:33;6.55;;;1.88;;
57113;SDS011;42994;51.606;9.988;2022-07-29T04:51:01;5.90;;;1.83;;
57113;SDS011;42994;51.606;9.988;2022-07-29T04:53:27;5.88;;;2.08;;
57113;SDS011;42994;51.606;9.988;2022-07-29T04:55:54;6.78;;;1.95;;
57113;SDS011;42994;51.606;9.988;2022-07-29T04:58:21;6.20;;;1.95;;
57113;SDS011;42994;51.606;9.988;2022-07-29T05:00:48;6.20;;;2.35;;
57113;SDS011;42994;51.606;9.988;2022-07-29T05:03:15;10.82;;;2.38;;
57113;SDS011;42994;51.606;9.988;2022-07-29T05:05:42;7.45;;;2.25;;
57113;SDS011;42994;51.606;9.988;2022-07-29T05:08:10;14.02;;;2.90;;
57113;SDS011;42994;51.606;9.988;2022-07-29T05:10:37;5.07;;;2.35;;
57113;SDS011;42994;51.606;9.988;2022-07-29T05:13:04;10.02;;;2.10;;
57113;SDS011;42994;51.606;9.988;2022-07-29T05:15:31;7.82;;;1.80;;
57113;SDS011;42994;51.606;9.988;2022-07-29T05:17:58;7.77;;;1.97;;
57113;SDS011;42994;51.606;9.988;2022-07-29T05:20:25;5.67;;;1.63;;
57113;SDS011;42994;51.606;9.988;2022-07-29T05:22:53;4.95;;;1.55;;
57113;SDS011;42994;51.606;9.988;2022-07-29T05:25:21;4.15;;;1.48;;
57113;SDS011;42994;51.606;9.988;2022-07-29T05:27:48;5.30;;;2.28;;
57113;SDS011;42994;51.606;9.988;2022-07-29T05:30:15;5.28;;;1.98;;
57113;SDS011;42994;51.606;9.988;2022-07-29T05:32:42;4.60;;;1.70;;
57113;SDS011;42994;51.606;9.988;2022-07-29T05:35:08;7.57;;;1.80;;
57113;SDS011;42994;51.606;9.988;2022-07-29T05:37:35;7.82;;;1.73;;
57113;SDS011;42994;51.606;9.988;2022-07-29T05:40:02;6.53;;;1.83;;
57113;SDS011;42994;51.606;9.988;2022-07-29T05:42:30;8.70;;;1.87;;
57113;SDS011;42994;51.606;9.988;2022-07-29T05:44:57;11.43;;;2.10;;
57113;SDS011;42994;51.606;9.988;2022-07-29T05:47:24;9.52;;;2.40;;
57113;SDS011;42994;51.606;9.988;2022-07-29T05:49:50;8.13;;;2.13;;
57113;SDS011;42994;51.606;9.988;2022-07-29T05:52:17;5.90;;;2.10;;
57113;SDS011;42994;51.606;9.988;2022-07-29T05:54:44;5.55;;;1.70;;
57113;SDS011;42994;51.606;9.988;2022-07-29T05:57:14;3.95;;;1.50;;
57113;SDS011;42994;51.606;9.988;2022-07-29T05:59:43;9.13;;;1.77;;
57113;SDS011;42994;51.606;9.988;2022-07-29T06:02:10;7.80;;;1.90;;
57113;SDS011;42994;51.606;9.988;2022-07-29T06:04:37;4.78;;;1.60;;
57113;SDS011;42994;51.606;9.988;2022-07-29T06:07:04;9.73;;;1.58;;
57113;SDS011;42994;51.606;9.988;2022-07-29T06:09:31;7.25;;;1.60;;
57113;SDS011;42994;51.606;9.988;2022-07-29T06:11:58;4.47;;;1.50;;
57113;SDS011;42994;51.606;9.988;2022-07-29T06:14:24;4.67;;;1.57;;
57113;SDS011;42994;51.606;9.988;2022-07-29T06:16:53;4.83;;;1.40;;
57113;SDS011;42994;51.606;9.988;2022-07-29T06:19:19;6.43;;;1.60;;
57113;SDS011;42994;51.606;9.988;2022-07-29T06:21:46;4.35;;;1.33;;
57113;SDS011;42994;51.606;9.988;2022-07-29T06:24:14;4.38;;;1.20;;
57113;SDS011;42994;51.606;9.988;2022-07-29T06:26:42;6.10;;;1.70;;
57113;SDS011;42994;51.606;9.988;2022-07-29T06:29:09;7.25;;;1.80;;
57113;SDS011;42994;51.606;9.988;2022-07-29T06:31:36;7.22;;;1.85;;
57113;SDS011;42994;51.606;9.988;2022-07-29T06:34:05;7.57;;;1.60;;
57113;SDS011;42994;51.606;9.988;2022-07-29T06:36:33;2.60;;;1.40;;
57113;SDS011;42994;51.606;9.988;2022-07-29T06:39:00;6.43;;;1.50;;
57113;SDS011;42994;51.606;9.988;2022-07-29T06:41:27;4.35;;;1.40;;
57113;SDS011;42994;51.606;9.988;2022-07-29T06:43:54;7.85;;;1.80;;
57113;SDS011;42994;51.606;9.988;2022-07-29T06:46:21;7.28;;;1.75;;
57113;SDS011;42994;51.606;9.988;2022-07-29T06:48:49;6.70;;;1.80;;
57113;SDS011;42994;51.606;9.988;2022-07-29T06:51:17;5.60;;;1.55;;
57113;SDS011;42994;51.606;9.988;2022-07-29T06:53:44;4.68;;;1.60;;
57113;SDS011;42994;51.606;9.988;2022-07-29T06:56:11;5.78;;;1.85;;
57113;SDS011;42994;51.606;9.988;2022-07-29T06:58:39;6.88;;;1.90;;
57113;SDS011;42994;51.606;9.988;2022-07-29T07:01:06;5.00;;;1.73;;
57113;SDS011;42994;51.606;9.988;2022-07-29T07:03:32;6.35;;;2.08;;
57113;SDS011;42994;51.606;9.988;2022-07-29T07:05:59;8.00;;;2.10;;
57113;SDS011;42994;51.606;9.988;2022-07-29T07:08:28;5.63;;;2.00;;
57113;SDS011;42994;51.606;9.988;2022-07-29T07:10:55;4.05;;;1.73;;
57113;SDS011;42994;51.606;9.988;2022-07-29T07:13:22;5.60;;;1.83;;
57113;SDS011;42994;51.606;9.988;2022-07-29T07:15:48;5.70;;;2.33;;
57113;SDS011;42994;51.606;9.988;2022-07-29T07:18:16;5.97;;;2.20;;
57113;SDS011;42994;51.606;9.988;2022-07-29T07:20:43;5.38;;;1.70;;
57113;SDS011;42994;51.606;9.988;2022-07-29T07:23:10;4.78;;;1.85;;
57113;SDS011;42994;51.606;9.988;2022-07-29T07:25:39;4.53;;;1.98;;
57113;SDS011;42994;51.606;9.988;2022-07-29T07:28:05;9.00;;;1.90;;
57113;SDS011;42994;51.606;9.988;2022-07-29T07:30:32;5.60;;;2.00;;
57113;SDS011;42994;51.606;9.988;2022-07-29T07:32:59;4.78;;;1.95;;
57113;SDS011;42994;51.606;9.988;2022-07-29T07:35:26;6.10;;;2.00;;
57113;SDS011;42994;51.606;9.988;2022-07-29T07:37:52;4.50;;;1.90;;
57113;SDS011;42994;51.606;9.988;2022-07-29T07:40:19;6.68;;;2.55;;
57113;SDS011;42994;51.606;9.988;2022-07-29T07:42:47;3.67;;;1.95;;
57113;SDS011;42994;51.606;9.988;2022-07-29T07:45:14;5.75;;;2.22;;
57113;SDS011;42994;51.606;9.988;2022-07-29T07:47:41;11.30;;;2.30;;
57113;SDS011;42994;51.606;9.988;2022-07-29T07:50:08;11.83;;;2.50;;
57113;SDS011;42994;51.606;9.988;2022-07-29T07:52:45;5.78;;;2.38;;
57113;SDS011;42994;51.606;9.988;2022-07-29T07:55:12;6.10;;;2.45;;
57113;SDS011;42994;51.606;9.988;2022-07-29T07:57:39;5.28;;;2.50;;
57113;SDS011;42994;51.606;9.988;2022-07-29T08:00:08;10.43;;;3.27;;
57113;SDS011;42994;51.606;9.988;2022-07-29T08:02:37;5.80;;;2.63;;
57113;SDS011;42994;51.606;9.988;2022-07-29T08:05:05;7.23;;;3.03;;
57113;SDS011;42994;51.606;9.988;2022-07-29T08:07:32;7.28;;;2.88;;
57113;SDS011;42994;51.606;9.988;2022-07-29T08:09:59;7.72;;;2.95;;
57113;SDS011;42994;51.606;9.988;2022-07-29T08:12:26;6.28;;;2.83;;
57113;SDS011;42994;51.606;9.988;2022-07-29T08:14:53;8.40;;;3.50;;
57113;SDS011;42994;51.606;9.988;2022-07-29T08:17:21;6.60;;;2.90;;
57113;SDS011;42994;51.606;9.988;2022-07-29T08:19:48;8.50;;;3.17;;
57113;SDS011;42994;51.606;9.988;2022-07-29T08:22:15;6.53;;;2.75;;
57113;SDS011;42994;51.606;9.988;2022-07-29T08:24:41;6.45;;;3.30;;
57113;SDS011;42994;51.606;9.988;2022-07-29T08:27:17;9.45;;;3.17;;
57113;SDS011;42994;51.606;9.988;2022-07-29T08:29:45;4.97;;;2.85;;
57113;SDS011;42994;51.606;9.988;2022-07-29T08:32:12;7.18;;;2.95;;
57113;SDS011;42994;51.606;9.988;2022-07-29T08:34:41;7.38;;;2.95;;
57113;SDS011;42994;51.606;9.988;2022-07-29T08:37:09;7.90;;;3.20;;
57113;SDS011;42994;51.606;9.988;2022-07-29T08:39:36;5.32;;;2.58;;
57113;SDS011;42994;51.606;9.988;2022-07-29T08:42:03;7.82;;;3.30;;
57113;SDS011;42994;51.606;9.988;2022-07-29T08:44:30;7.50;;;2.88;;
57113;SDS011;42994;51.606;9.988;2022-07-29T08:46:58;6.97;;;3.08;;
57113;SDS011;42994;51.606;9.988;2022-07-29T08:49:24;4.90;;;2.88;;
57113;SDS011;42994;51.606;9.988;2022-07-29T08:51:52;4.85;;;2.75;;
57113;SDS011;42994;51.606;9.988;2022-07-29T08:54:21;8.05;;;2.88;;
57113;SDS011;42994;51.606;9.988;2022-07-29T08:56:50;7.00;;;2.70;;
57113;SDS011;42994;51.606;9.988;2022-07-29T08:59:17;12.98;;;2.95;;
57113;SDS011;42994;51.606;9.988;2022-07-29T09:01:46;5.63;;;3.05;;
57113;SDS011;42994;51.606;9.988;2022-07-29T09:04:14;8.73;;;3.47;;
57113;SDS011;42994;51.606;9.988;2022-07-29T09:06:43;11.70;;;3.60;;
57113;SDS011;42994;51.606;9.988;2022-07-29T09:09:13;7.45;;;3.38;;
57113;SDS011;42994;51.606;9.988;2022-07-29T09:11:41;7.85;;;3.20;;
57113;SDS011;42994;51.606;9.988;2022-07-29T09:14:08;7.57;;;3.45;;
57113;SDS011;42994;51.606;9.988;2022-07-29T09:16:44;6.43;;;2.97;;
57113;SDS011;42994;51.606;9.988;2022-07-29T09:19:22;7.93;;;3.20;;
57113;SDS011;42994;51.606;9.988;2022-07-29T09:21:54;6.10;;;3.20;;
57113;SDS011;42994;51.606;9.988;2022-07-29T09:24:25;6.60;;;2.95;;
57113;SDS011;42994;51.606;9.988;2022-07-29T09:26:54;10.30;;;3.15;;
57113;SDS011;42994;51.606;9.988;2022-07-29T09:29:21;10.25;;;2.78;;
57113;SDS011;42994;51.606;9.988;2022-07-29T09:31:49;7.72;;;2.97;;
57113;SDS011;42994;51.606;9.988;2022-07-29T09:34:21;7.80;;;2.72;;
57113;SDS011;42994;51.606;9.988;2022-07-29T09:36:49;5.18;;;2.75;;
57113;SDS011;42994;51.606;9.988;2022-07-29T09:39:26;8.60;;;3.10;;
57113;SDS011;42994;51.606;9.988;2022-07-29T09:41:59;4.25;;;2.83;;
57113;SDS011;42994;51.606;9.988;2022-07-29T09:44:27;7.97;;;3.13;;
57113;SDS011;42994;51.606;9.988;2022-07-29T09:47:07;11.32;;;3.45;;
57113;SDS011;42994;51.606;9.988;2022-07-29T09:49:34;9.95;;;3.20;;
57113;SDS011;42994;51.606;9.988;2022-07-29T09:52:05;7.95;;;2.88;;
57113;SDS011;42994;51.606;9.988;2022-07-29T09:54:35;8.18;;;3.25;;
57113;SDS011;42994;51.606;9.988;2022-07-29T09:57:03;5.85;;;2.83;;
57113;SDS011;42994;51.606;9.988;2022-07-29T09:59:31;8.10;;;2.92;;
57113;SDS011;42994;51.606;9.988;2022-07-29T10:01:58;10.40;;;3.00;;
57113;SDS011;42994;51.606;9.988;2022-07-29T10:04:36;10.93;;;3.75;;
57113;SDS011;42994;51.606;9.988;2022-07-29T10:07:04;9.18;;;2.95;;
57113;SDS011;42994;51.606;9.988;2022-07-29T10:09:31;11.63;;;3.08;;
57113;SDS011;42994;51.606;9.988;2022-07-29T10:12:07;5.18;;;2.70;;
57113;SDS011;42994;51.606;9.988;2022-07-29T10:14:36;7.45;;;2.90;;
57113;SDS011;42994;51.606;9.988;2022-07-29T10:17:04;8.20;;;3.10;;
57113;SDS011;42994;51.606;9.988;2022-07-29T10:19:32;7.53;;;3.13;;
57113;SDS011;42994;51.606;9.988;2022-07-29T10:22:01;10.93;;;2.97;;
57113;SDS011;42994;51.606;9.988;2022-07-29T10:24:30;10.48;;;3.60;;
57113;SDS011;42994;51.606;9.988;2022-07-29T10:26:58;6.78;;;2.65;;
57113;SDS011;42994;51.606;9.988;2022-07-29T10:29:28;9.65;;;3.13;;
57113;SDS011;42994;51.606;9.988;2022-07-29T10:32:07;6.00;;;3.17;;
57113;SDS011;42994;51.606;9.988;2022-07-29T10:35:00;9.63;;;3.15;;
57113;SDS011;42994;51.606;9.988;2022-07-29T10:37:37;10.43;;;3.50;;
57113;SDS011;42994;51.606;9.988;2022-07-29T10:40:22;9.77;;;3.58;;
57113;SDS011;42994;51.606;9.988;2022-07-29T10:43:19;9.52;;;3.90;;
57113;SDS011;42994;51.606;9.988;2022-07-29T10:45:55;8.50;;;3.67;;
57113;SDS011;42994;51.606;9.988;2022-07-29T10:48:23;8.50;;;3.65;;
57113;SDS011;42994;51.606;9.988;2022-07-29T10:50:53;9.20;;;3.03;;
57113;SDS011;42994;51.606;9.988;2022-07-29T10:53:21;10.15;;;3.80;;
57113;SDS011;42994;51.606;9.988;2022-07-29T10:55:48;6.60;;;3.03;;
57113;SDS011;42994;51.606;9.988;2022-07-29T10:58:18;7.28;;;3.35;;
57113;SDS011;42994;51.606;9.988;2022-07-29T11:00:46;13.73;;;3.63;;
57113;SDS011;42994;51.606;9.988;2022-07-29T11:06:15;8.60;;;3.45;;
57113;SDS011;42994;51.606;9.988;2022-07-29T11:08:42;11.02;;;3.30;;
57113;SDS011;42994;51.606;9.988;2022-07-29T11:14:00;10.73;;;3.50;;
57113;SDS011;42994;51.606;9.988;2022-07-29T11:16:31;15.05;;;3.22;;
57113;SDS011;42994;51.606;9.988;2022-07-29T11:19:33;11.17;;;3.60;;
57113;SDS011;42994;51.606;9.988;2022-07-29T11:22:01;7.95;;;3.35;;
57113;SDS011;42994;51.606;9.988;2022-07-29T11:24:29;8.25;;;3.10;;
57113;SDS011;42994;51.606;9.988;2022-07-29T11:27:07;7.25;;;2.80;;
57113;SDS011;42994;51.606;9.988;2022-07-29T11:29:36;8.77;;;2.72;;
57113;SDS011;42994;51.606;9.988;2022-07-29T11:32:10;9.52;;;2.78;;
57113;SDS011;42994;51.606;9.988;2022-07-29T11:34:39;6.45;;;2.80;;
57113;SDS011;42994;51.606;9.988;2022-07-29T11:37:19;4.00;;;2.38;;
57113;SDS011;42994;51.606;9.988;2022-07-29T11:42:50;8.35;;;2.67;;
57113;SDS011;42994;51.606;9.988;2022-07-29T11:45:24;8.63;;;3.30;;
57113;SDS011;42994;51.606;9.988;2022-07-29T11:47:59;10.13;;;3.47;;
57113;SDS011;42994;51.606;9.988;2022-07-29T11:50:27;8.73;;;3.10;;
57113;SDS011;42994;51.606;9.988;2022-07-29T11:52:58;7.20;;;3.10;;
57113;SDS011;42994;51.606;9.988;2022-07-29T11:55:26;7.43;;;3.00;;
57113;SDS011;42994;51.606;9.988;2022-07-29T11:57:54;10.50;;;3.40;;
57113;SDS011;42994;51.606;9.988;2022-07-29T12:00:22;10.67;;;3.50;;
57113;SDS011;42994;51.606;9.988;2022-07-29T12:02:51;4.95;;;2.65;;
57113;SDS011;42994;51.606;9.988;2022-07-29T12:05:19;7.78;;;2.40;;
57113;SDS011;42994;51.606;9.988;2022-07-29T12:07:47;5.63;;;2.40;;
57113;SDS011;42994;51.606;9.988;2022-07-29T12:10:14;7.60;;;2.70;;
57113;SDS011;42994;51.606;9.988;2022-07-29T12:12:41;7.45;;;2.83;;
57113;SDS011;42994;51.606;9.988;2022-07-29T12:15:12;6.32;;;2.58;;
57113;SDS011;42994;51.606;9.988;2022-07-29T12:17:41;8.60;;;2.40;;
57113;SDS011;42994;51.606;9.988;2022-07-29T12:20:08;8.13;;;3.17;;
57113;SDS011;42994;51.606;9.988;2022-07-29T12:22:37;9.10;;;2.83;;
57113;SDS011;42994;51.606;9.988;2022-07-29T12:25:06;7.75;;;2.67;;
57113;SDS011;42994;51.606;9.988;2022-07-29T12:27:34;7.55;;;2.72;;
57113;SDS011;42994;51.606;9.988;2022-07-29T12:30:03;9.20;;;2.40;;
57113;SDS011;42994;51.606;9.988;2022-07-29T12:32:33;6.40;;;2.50;;
57113;SDS011;42994;51.606;9.988;2022-07-29T12:35:04;9.52;;;3.10;;
57113;SDS011;42994;51.606;9.988;2022-07-29T12:37:33;9.80;;;3.25;;
57113;SDS011;42994;51.606;9.988;2022-07-29T12:40:03;8.65;;;2.70;;
57113;SDS011;42994;51.606;9.988;2022-07-29T12:42:32;7.50;;;2.75;;
57113;SDS011;42994;51.606;9.988;2022-07-29T12:44:59;4.78;;;2.70;;
57113;SDS011;42994;51.606;9.988;2022-07-29T12:47:27;9.55;;;2.70;;
57113;SDS011;42994;51.606;9.988;2022-07-29T12:50:07;8.18;;;2.55;;
57113;SDS011;42994;51.606;9.988;2022-07-29T12:52:35;7.13;;;2.67;;
57113;SDS011;42994;51.606;9.988;2022-07-29T12:55:03;7.20;;;2.22;;
57113;SDS011;42994;51.606;9.988;2022-07-29T12:57:31;7.33;;;2.30;;
57113;SDS011;42994;51.606;9.988;2022-07-29T12:59:59;7.22;;;2.60;;
57113;SDS011;42994;51.606;9.988;2022-07-29T13:02:27;12.18;;;2.50;;
57113;SDS011;42994;51.606;9.988;2022-07-29T13:04:55;9.68;;;2.60;;
57113;SDS011;42994;51.606;9.988;2022-07-29T13:07:24;8.88;;;2.83;;
57113;SDS011;42994;51.606;9.988;2022-07-29T13:09:52;8.13;;;2.40;;
57113;SDS011;42994;51.606;9.988;2022-07-29T13:12:21;6.90;;;2.45;;
57113;SDS011;42994;51.606;9.988;2022-07-29T13:14:48;4.20;;;2.38;;
57113;SDS011;42994;51.606;9.988;2022-07-29T13:17:16;6.07;;;2.42;;
57113;SDS011;42994;51.606;9.988;2022-07-29T13:19:44;12.43;;;2.40;;
57113;SDS011;42994;51.606;9.988;2022-07-29T13:22:13;5.05;;;2.13;;
57113;SDS011;42994;51.606;9.988;2022-07-29T13:24:51;6.95;;;2.30;;
57113;SDS011;42994;51.606;9.988;2022-07-29T13:27:19;10.68;;;2.38;;
57113;SDS011;42994;51.606;9.988;2022-07-29T13:29:48;5.65;;;2.28;;
57113;SDS011;42994;51.606;9.988;2022-07-29T13:32:17;5.15;;;2.53;;
57113;SDS011;42994;51.606;9.988;2022-07-29T13:34:44;5.68;;;2.20;;
57113;SDS011;42994;51.606;9.988;2022-07-29T13:37:11;6.30;;;2.40;;
57113;SDS011;42994;51.606;9.988;2022-07-29T13:39:38;5.95;;;2.50;;
57113;SDS011;42994;51.606;9.988;2022-07-29T13:42:06;5.05;;;2.40;;
57113;SDS011;42994;51.606;9.988;2022-07-29T13:44:35;10.45;;;2.88;;
57113;SDS011;42994;51.606;9.988;2022-07-29T13:47:02;7.15;;;2.25;;
57113;SDS011;42994;51.606;9.988;2022-07-29T13:49:28;7.43;;;2.35;;
57113;SDS011;42994;51.606;9.988;2022-07-29T13:51:55;7.38;;;2.50;;
57113;SDS011;42994;51.606;9.988;2022-07-29T13:54:22;8.57;;;2.67;;
57113;SDS011;42994;51.606;9.988;2022-07-29T13:56:49;10.15;;;2.40;;
57113;SDS011;42994;51.606;9.988;2022-07-29T13:59:16;5.82;;;1.95;;
57113;SDS011;42994;51.606;9.988;2022-07-29T14:01:44;13.35;;;2.45;;
57113;SDS011;42994;51.606;9.988;2022-07-29T14:04:11;8.38;;;2.45;;
57113;SDS011;42994;51.606;9.988;2022-07-29T14:06:37;4.53;;;2.40;;
57113;SDS011;42994;51.606;9.988;2022-07-29T14:09:04;5.80;;;2.60;;
57113;SDS011;42994;51.606;9.988;2022-07-29T14:11:33;8.95;;;2.80;;
57113;SDS011;42994;51.606;9.988;2022-07-29T14:14:00;6.68;;;3.00;;
57113;SDS011;42994;51.606;9.988;2022-07-29T14:16:27;7.45;;;2.10;;
57113;SDS011;42994;51.606;9.988;2022-07-29T14:18:55;10.02;;;2.47;;
57113;SDS011;42994;51.606;9.988;2022-07-29T14:21:22;7.20;;;2.50;;
57113;SDS011;42994;51.606;9.988;2022-07-29T14:23:48;7.82;;;2.75;;
57113;SDS011;42994;51.606;9.988;2022-07-29T14:26:17;9.88;;;2.50;;
57113;SDS011;42994;51.606;9.988;2022-07-29T14:28:43;10.52;;;2.85;;
57113;SDS011;42994;51.606;9.988;2022-07-29T14:31:10;6.38;;;2.28;;
57113;SDS011;42994;51.606;9.988;2022-07-29T14:33:37;9.80;;;2.42;;
57113;SDS011;42994;51.606;9.988;2022-07-29T14:36:05;11.25;;;2.70;;
57113;SDS011;42994;51.606;9.988;2022-07-29T14:38:32;5.22;;;2.50;;
57113;SDS011;42994;51.606;9.988;2022-07-29T14:40:58;9.68;;;2.38;;
57113;SDS011;42994;51.606;9.988;2022-07-29T14:43:25;5.63;;;2.72;;
57113;SDS011;42994;51.606;9.988;2022-07-29T14:45:52;10.73;;;3.00;;
57113;SDS011;42994;51.606;9.988;2022-07-29T14:48:18;5.97;;;2.30;;
57113;SDS011;42994;51.606;9.988;2022-07-29T14:50:45;11.90;;;2.67;;
57113;SDS011;42994;51.606;9.988;2022-07-29T14:53:13;7.50;;;2.60;;
57113;SDS011;42994;51.606;9.988;2022-07-29T14:55:40;6.60;;;3.08;;
57113;SDS011;42994;51.606;9.988;2022-07-29T14:58:07;7.05;;;2.80;;
57113;SDS011;42994;51.606;9.988;2022-07-29T15:00:34;13.13;;;3.33;;
57113;SDS011;42994;51.606;9.988;2022-07-29T15:03:02;13.27;;;3.75;;